sensor_id;sensor_type;location;lat;lon;timestamp;P1;durP1;ratioP1;P2;durP2;ratioP2
7561;SDS011;3822;48.784;9.174;2023-02-15T00:01:11;30.83;;;15.97;;
7561;SDS011;3822;48.784;9.174;2023-02-15T00:03:38;23.53;;;16.33;;
7561;SDS011;3822;48.784;9.174;2023-02-15T00:06:07;28.13;;;15.40;;
7561;SDS011;3822;48.784;9.174;2023-02-15T00:08:34;29.53;;;15.50;;
7561;SDS011;3822;48.784;9.174;2023-02-15T00:11:04;28.60;;;17.37;;
7561;SDS011;3822;48.784;9.174;2023-02-15T00:13:38;24.57;;;13.77;;
7561;SDS011;3822;48.784;9.174;2023-02-15T00:16:09;28.47;;;15.37;;
7561;SDS011;3822;48.784;9.174;2023-02-15T00:18:38;25.80;;;15.33;;
7561;SDS011;3822;48.784;9.174;2023-02-15T00:21:06;27.60;;;16.30;;
7561;SDS011;3822;48.784;9.174;2023-02-15T00:23:36;27.03;;;15.27;;
7561;SDS011;3822;48.784;9.174;2023-02-15T00:26:06;29.43;;;17.53;;
7561;SDS011;3822;48.784;9.174;2023-02-15T00:28:37;30.37;;;17.60;;
7561;SDS011;3822;48.784;9.174;2023-02-15T00:31:09;27.27;;;16.70;;
7561;SDS011;3822;48.784;9.174;2023-02-15T00:33:37;28.60;;;16.73;;
7561;SDS011;3822;48.784;9.174;2023-02-15T00:36:06;26.70;;;16.60;;
7561;SDS011;3822;48.784;9.174;2023-02-15T00:38:34;32.20;;;17.60;;
7561;SDS011;3822;48.784;9.174;2023-02-15T00:41:02;24.13;;;14.90;;
7561;SDS011;3822;48.784;9.174;2023-02-15T00:43:32;27.20;;;15.40;;
7561;SDS011;3822;48.784;9.174;2023-02-15T00:46:00;26.07;;;14.90;;
7561;SDS011;3822;48.784;9.174;2023-02-15T00:48:29;28.60;;;15.60;;
7561;SDS011;3822;48.784;9.174;2023-02-15T00:50:57;30.00;;;16.60;;
7561;SDS011;3822;48.784;9.174;2023-02-15T00:53:25;27.60;;;16.27;;
7561;SDS011;3822;48.784;9.174;2023-02-15T00:55:53;30.73;;;16.53;;
7561;SDS011;3822;48.784;9.174;2023-02-15T00:58:20;30.37;;;17.60;;
7561;SDS011;3822;48.784;9.174;2023-02-15T01:00:47;24.70;;;14.47;;
7561;SDS011;3822;48.784;9.174;2023-02-15T01:03:14;24.50;;;14.13;;
7561;SDS011;3822;48.784;9.174;2023-02-15T01:05:42;26.97;;;16.07;;
7561;SDS011;3822;48.784;9.174;2023-02-15T01:08:09;25.73;;;16.30;;
7561;SDS011;3822;48.784;9.174;2023-02-15T01:10:36;33.27;;;18.73;;
7561;SDS011;3822;48.784;9.174;2023-02-15T01:13:02;27.00;;;17.57;;
7561;SDS011;3822;48.784;9.174;2023-02-15T01:15:29;26.43;;;16.83;;
7561;SDS011;3822;48.784;9.174;2023-02-15T01:17:56;27.73;;;16.60;;
7561;SDS011;3822;48.784;9.174;2023-02-15T01:20:23;29.23;;;19.47;;
7561;SDS011;3822;48.784;9.174;2023-02-15T01:22:53;34.90;;;18.40;;
7561;SDS011;3822;48.784;9.174;2023-02-15T01:25:21;25.40;;;15.40;;
7561;SDS011;3822;48.784;9.174;2023-02-15T01:27:49;28.93;;;16.50;;
7561;SDS011;3822;48.784;9.174;2023-02-15T01:30:15;27.67;;;16.53;;
7561;SDS011;3822;48.784;9.174;2023-02-15T01:32:43;25.43;;;15.27;;
7561;SDS011;3822;48.784;9.174;2023-02-15T01:35:09;28.13;;;15.50;;
7561;SDS011;3822;48.784;9.174;2023-02-15T01:37:36;24.07;;;15.03;;
7561;SDS011;3822;48.784;9.174;2023-02-15T01:40:04;23.73;;;15.00;;
7561;SDS011;3822;48.784;9.174;2023-02-15T01:42:34;28.60;;;15.73;;
7561;SDS011;3822;48.784;9.174;2023-02-15T01:45:05;23.17;;;15.07;;
7561;SDS011;3822;48.784;9.174;2023-02-15T01:48:06;26.10;;;15.70;;
7561;SDS011;3822;48.784;9.174;2023-02-15T01:50:43;22.40;;;13.67;;
7561;SDS011;3822;48.784;9.174;2023-02-15T01:53:33;22.90;;;13.50;;
7561;SDS011;3822;48.784;9.174;2023-02-15T01:56:06;24.67;;;14.73;;
7561;SDS011;3822;48.784;9.174;2023-02-15T01:58:38;24.27;;;13.33;;
7561;SDS011;3822;48.784;9.174;2023-02-15T02:01:04;23.23;;;13.67;;
7561;SDS011;3822;48.784;9.174;2023-02-15T02:06:23;26.63;;;16.00;;
7561;SDS011;3822;48.784;9.174;2023-02-15T02:08:52;27.00;;;16.30;;
7561;SDS011;3822;48.784;9.174;2023-02-15T02:11:20;35.47;;;16.70;;
7561;SDS011;3822;48.784;9.174;2023-02-15T02:13:48;23.00;;;14.43;;
7561;SDS011;3822;48.784;9.174;2023-02-15T02:22:14;24.03;;;15.53;;
7561;SDS011;3822;48.784;9.174;2023-02-15T02:28:40;24.40;;;12.57;;
7561;SDS011;3822;48.784;9.174;2023-02-15T02:34:55;22.53;;;12.87;;
7561;SDS011;3822;48.784;9.174;2023-02-15T02:37:41;21.53;;;12.00;;
7561;SDS011;3822;48.784;9.174;2023-02-15T02:40:25;24.77;;;14.87;;
7561;SDS011;3822;48.784;9.174;2023-02-15T02:43:10;23.07;;;14.80;;
7561;SDS011;3822;48.784;9.174;2023-02-15T02:45:57;24.70;;;15.80;;
7561;SDS011;3822;48.784;9.174;2023-02-15T02:48:25;24.30;;;14.70;;
7561;SDS011;3822;48.784;9.174;2023-02-15T02:50:55;21.50;;;12.90;;
7561;SDS011;3822;48.784;9.174;2023-02-15T02:53:22;22.27;;;13.70;;
7561;SDS011;3822;48.784;9.174;2023-02-15T02:58:55;25.63;;;15.97;;
7561;SDS011;3822;48.784;9.174;2023-02-15T03:01:39;22.33;;;14.27;;
7561;SDS011;3822;48.784;9.174;2023-02-15T03:04:17;27.23;;;14.50;;
7561;SDS011;3822;48.784;9.174;2023-02-15T03:07:00;23.57;;;14.33;;
7561;SDS011;3822;48.784;9.174;2023-02-15T03:09:37;21.33;;;13.57;;
7561;SDS011;3822;48.784;9.174;2023-02-15T03:12:09;25.53;;;13.83;;
7561;SDS011;3822;48.784;9.174;2023-02-15T03:14:40;23.60;;;14.17;;
7561;SDS011;3822;48.784;9.174;2023-02-15T03:17:10;22.07;;;12.40;;
7561;SDS011;3822;48.784;9.174;2023-02-15T03:19:39;23.50;;;12.67;;
7561;SDS011;3822;48.784;9.174;2023-02-15T03:22:13;22.67;;;12.97;;
7561;SDS011;3822;48.784;9.174;2023-02-15T03:24:48;22.27;;;13.47;;
7561;SDS011;3822;48.784;9.174;2023-02-15T03:27:24;26.00;;;13.73;;
7561;SDS011;3822;48.784;9.174;2023-02-15T03:29:57;25.30;;;13.97;;
7561;SDS011;3822;48.784;9.174;2023-02-15T03:32:29;24.67;;;12.90;;
7561;SDS011;3822;48.784;9.174;2023-02-15T03:34:58;22.00;;;14.00;;
7561;SDS011;3822;48.784;9.174;2023-02-15T03:40:16;21.53;;;12.27;;
7561;SDS011;3822;48.784;9.174;2023-02-15T03:43:32;22.47;;;13.63;;
7561;SDS011;3822;48.784;9.174;2023-02-15T03:46:19;26.90;;;14.50;;
7561;SDS011;3822;48.784;9.174;2023-02-15T03:49:30;21.27;;;12.97;;
7561;SDS011;3822;48.784;9.174;2023-02-15T03:52:21;23.40;;;14.70;;
7561;SDS011;3822;48.784;9.174;2023-02-15T03:54:54;26.23;;;14.70;;
7561;SDS011;3822;48.784;9.174;2023-02-15T03:57:27;27.57;;;14.90;;
7561;SDS011;3822;48.784;9.174;2023-02-15T04:00:21;27.27;;;13.23;;
7561;SDS011;3822;48.784;9.174;2023-02-15T04:05:58;22.13;;;12.87;;
7561;SDS011;3822;48.784;9.174;2023-02-15T04:08:27;22.23;;;13.00;;
7561;SDS011;3822;48.784;9.174;2023-02-15T04:11:12;22.43;;;14.00;;
7561;SDS011;3822;48.784;9.174;2023-02-15T04:13:39;27.37;;;15.00;;
7561;SDS011;3822;48.784;9.174;2023-02-15T04:16:07;23.23;;;14.27;;
7561;SDS011;3822;48.784;9.174;2023-02-15T04:18:37;27.03;;;14.20;;
7561;SDS011;3822;48.784;9.174;2023-02-15T04:21:28;31.30;;;15.77;;
7561;SDS011;3822;48.784;9.174;2023-02-15T04:24:15;24.27;;;12.70;;
7561;SDS011;3822;48.784;9.174;2023-02-15T04:27:00;22.93;;;13.47;;
7561;SDS011;3822;48.784;9.174;2023-02-15T04:29:28;20.20;;;12.77;;
7561;SDS011;3822;48.784;9.174;2023-02-15T04:31:56;24.27;;;14.00;;
7561;SDS011;3822;48.784;9.174;2023-02-15T04:34:25;23.30;;;13.60;;
7561;SDS011;3822;48.784;9.174;2023-02-15T04:36:52;22.33;;;12.40;;
7561;SDS011;3822;48.784;9.174;2023-02-15T04:39:19;21.47;;;13.10;;
7561;SDS011;3822;48.784;9.174;2023-02-15T04:41:45;20.93;;;12.80;;
7561;SDS011;3822;48.784;9.174;2023-02-15T04:44:13;18.53;;;12.13;;
7561;SDS011;3822;48.784;9.174;2023-02-15T04:46:40;23.03;;;12.90;;
7561;SDS011;3822;48.784;9.174;2023-02-15T04:49:08;22.30;;;13.33;;
7561;SDS011;3822;48.784;9.174;2023-02-15T04:51:34;23.23;;;12.97;;
7561;SDS011;3822;48.784;9.174;2023-02-15T04:54:01;25.73;;;13.53;;
7561;SDS011;3822;48.784;9.174;2023-02-15T04:56:28;21.30;;;13.47;;
7561;SDS011;3822;48.784;9.174;2023-02-15T04:58:55;21.90;;;12.70;;
7561;SDS011;3822;48.784;9.174;2023-02-15T05:01:22;21.63;;;12.73;;
7561;SDS011;3822;48.784;9.174;2023-02-15T05:03:48;22.83;;;12.30;;
7561;SDS011;3822;48.784;9.174;2023-02-15T05:06:15;23.53;;;12.27;;
7561;SDS011;3822;48.784;9.174;2023-02-15T05:08:41;21.23;;;12.13;;
7561;SDS011;3822;48.784;9.174;2023-02-15T05:11:07;20.80;;;12.07;;
7561;SDS011;3822;48.784;9.174;2023-02-15T05:13:34;28.03;;;14.53;;
7561;SDS011;3822;48.784;9.174;2023-02-15T05:16:00;25.40;;;12.13;;
7561;SDS011;3822;48.784;9.174;2023-02-15T05:18:27;23.07;;;14.20;;
7561;SDS011;3822;48.784;9.174;2023-02-15T05:20:53;22.43;;;14.40;;
7561;SDS011;3822;48.784;9.174;2023-02-15T05:23:20;27.40;;;15.87;;
7561;SDS011;3822;48.784;9.174;2023-02-15T05:25:47;25.80;;;15.47;;
7561;SDS011;3822;48.784;9.174;2023-02-15T05:28:34;29.53;;;16.77;;
7561;SDS011;3822;48.784;9.174;2023-02-15T05:31:04;30.23;;;16.40;;
7561;SDS011;3822;48.784;9.174;2023-02-15T05:33:37;29.33;;;15.10;;
7561;SDS011;3822;48.784;9.174;2023-02-15T05:36:05;22.70;;;13.70;;
7561;SDS011;3822;48.784;9.174;2023-02-15T05:38:33;27.50;;;15.43;;
7561;SDS011;3822;48.784;9.174;2023-02-15T05:41:00;26.80;;;14.80;;
7561;SDS011;3822;48.784;9.174;2023-02-15T05:43:26;22.00;;;13.90;;
7561;SDS011;3822;48.784;9.174;2023-02-15T05:45:53;24.50;;;13.20;;
7561;SDS011;3822;48.784;9.174;2023-02-15T05:48:21;24.43;;;13.10;;
7561;SDS011;3822;48.784;9.174;2023-02-15T05:51:03;24.13;;;13.27;;
7561;SDS011;3822;48.784;9.174;2023-02-15T05:53:40;24.43;;;12.43;;
7561;SDS011;3822;48.784;9.174;2023-02-15T05:56:08;26.13;;;12.83;;
7561;SDS011;3822;48.784;9.174;2023-02-15T05:58:39;28.90;;;14.77;;
7561;SDS011;3822;48.784;9.174;2023-02-15T06:01:11;26.00;;;13.13;;
7561;SDS011;3822;48.784;9.174;2023-02-15T06:03:41;22.27;;;12.40;;
7561;SDS011;3822;48.784;9.174;2023-02-15T06:06:08;24.00;;;14.53;;
7561;SDS011;3822;48.784;9.174;2023-02-15T06:08:34;27.73;;;16.17;;
7561;SDS011;3822;48.784;9.174;2023-02-15T06:11:02;20.40;;;12.20;;
7561;SDS011;3822;48.784;9.174;2023-02-15T06:13:30;25.33;;;13.27;;
7561;SDS011;3822;48.784;9.174;2023-02-15T06:15:57;25.50;;;13.73;;
7561;SDS011;3822;48.784;9.174;2023-02-15T06:18:24;22.97;;;13.50;;
7561;SDS011;3822;48.784;9.174;2023-02-15T06:20:51;26.40;;;14.67;;
7561;SDS011;3822;48.784;9.174;2023-02-15T06:23:19;24.00;;;13.20;;
7561;SDS011;3822;48.784;9.174;2023-02-15T06:25:45;26.50;;;14.80;;
7561;SDS011;3822;48.784;9.174;2023-02-15T06:28:12;29.13;;;13.10;;
7561;SDS011;3822;48.784;9.174;2023-02-15T06:30:39;24.27;;;12.43;;
7561;SDS011;3822;48.784;9.174;2023-02-15T06:33:06;20.20;;;11.57;;
7561;SDS011;3822;48.784;9.174;2023-02-15T06:35:32;24.90;;;13.53;;
7561;SDS011;3822;48.784;9.174;2023-02-15T06:37:58;24.37;;;12.90;;
7561;SDS011;3822;48.784;9.174;2023-02-15T06:40:25;23.13;;;13.70;;
7561;SDS011;3822;48.784;9.174;2023-02-15T06:42:51;26.37;;;14.27;;
7561;SDS011;3822;48.784;9.174;2023-02-15T06:45:21;20.43;;;13.00;;
7561;SDS011;3822;48.784;9.174;2023-02-15T06:47:47;25.27;;;14.00;;
7561;SDS011;3822;48.784;9.174;2023-02-15T06:50:14;26.83;;;15.40;;
7561;SDS011;3822;48.784;9.174;2023-02-15T06:52:40;25.20;;;13.87;;
7561;SDS011;3822;48.784;9.174;2023-02-15T06:55:07;23.43;;;14.07;;
7561;SDS011;3822;48.784;9.174;2023-02-15T06:57:34;32.33;;;15.93;;
7561;SDS011;3822;48.784;9.174;2023-02-15T07:00:00;32.67;;;15.73;;
7561;SDS011;3822;48.784;9.174;2023-02-15T07:02:27;24.53;;;14.10;;
7561;SDS011;3822;48.784;9.174;2023-02-15T07:04:54;27.80;;;15.27;;
7561;SDS011;3822;48.784;9.174;2023-02-15T07:07:20;23.30;;;14.60;;
7561;SDS011;3822;48.784;9.174;2023-02-15T07:09:47;33.60;;;15.80;;
7561;SDS011;3822;48.784;9.174;2023-02-15T07:12:13;27.77;;;14.77;;
7561;SDS011;3822;48.784;9.174;2023-02-15T07:14:58;26.50;;;13.73;;
7561;SDS011;3822;48.784;9.174;2023-02-15T07:17:25;28.90;;;14.40;;
7561;SDS011;3822;48.784;9.174;2023-02-15T07:19:54;32.97;;;17.00;;
7561;SDS011;3822;48.784;9.174;2023-02-15T07:22:21;29.93;;;15.37;;
7561;SDS011;3822;48.784;9.174;2023-02-15T07:24:47;26.97;;;14.10;;
7561;SDS011;3822;48.784;9.174;2023-02-15T07:27:15;32.43;;;18.87;;
7561;SDS011;3822;48.784;9.174;2023-02-15T07:29:41;28.53;;;15.80;;
7561;SDS011;3822;48.784;9.174;2023-02-15T07:32:08;30.70;;;15.90;;
7561;SDS011;3822;48.784;9.174;2023-02-15T07:34:34;29.60;;;15.30;;
7561;SDS011;3822;48.784;9.174;2023-02-15T07:37:01;25.80;;;14.60;;
7561;SDS011;3822;48.784;9.174;2023-02-15T07:39:27;27.23;;;15.10;;
7561;SDS011;3822;48.784;9.174;2023-02-15T07:41:55;23.10;;;13.13;;
7561;SDS011;3822;48.784;9.174;2023-02-15T07:47:08;28.40;;;15.07;;
7561;SDS011;3822;48.784;9.174;2023-02-15T07:49:35;23.47;;;13.87;;
7561;SDS011;3822;48.784;9.174;2023-02-15T07:52:01;25.50;;;14.23;;
7561;SDS011;3822;48.784;9.174;2023-02-15T07:54:28;30.30;;;15.50;;
7561;SDS011;3822;48.784;9.174;2023-02-15T07:56:54;62.87;;;31.63;;
7561;SDS011;3822;48.784;9.174;2023-02-15T07:59:21;63.37;;;30.50;;
7561;SDS011;3822;48.784;9.174;2023-02-15T08:01:47;45.87;;;24.13;;
7561;SDS011;3822;48.784;9.174;2023-02-15T08:04:14;38.40;;;20.83;;
7561;SDS011;3822;48.784;9.174;2023-02-15T08:06:40;30.03;;;16.10;;
7561;SDS011;3822;48.784;9.174;2023-02-15T08:09:07;27.00;;;15.60;;
7561;SDS011;3822;48.784;9.174;2023-02-15T08:11:35;25.83;;;14.67;;
7561;SDS011;3822;48.784;9.174;2023-02-15T08:16:41;23.43;;;14.03;;
7561;SDS011;3822;48.784;9.174;2023-02-15T08:19:27;28.23;;;15.10;;
7561;SDS011;3822;48.784;9.174;2023-02-15T08:21:59;26.87;;;15.40;;
7561;SDS011;3822;48.784;9.174;2023-02-15T08:24:35;29.70;;;15.63;;
7561;SDS011;3822;48.784;9.174;2023-02-15T08:27:03;33.20;;;16.07;;
7561;SDS011;3822;48.784;9.174;2023-02-15T08:29:32;25.23;;;15.70;;
7561;SDS011;3822;48.784;9.174;2023-02-15T08:32:02;32.53;;;15.13;;
7561;SDS011;3822;48.784;9.174;2023-02-15T08:34:32;26.43;;;13.67;;
7561;SDS011;3822;48.784;9.174;2023-02-15T08:37:03;33.33;;;15.60;;
7561;SDS011;3822;48.784;9.174;2023-02-15T08:39:31;23.90;;;14.13;;
7561;SDS011;3822;48.784;9.174;2023-02-15T08:41:58;29.40;;;15.17;;
7561;SDS011;3822;48.784;9.174;2023-02-15T08:44:24;31.03;;;15.40;;
7561;SDS011;3822;48.784;9.174;2023-02-15T08:46:51;23.87;;;14.37;;
7561;SDS011;3822;48.784;9.174;2023-02-15T08:49:18;25.33;;;14.57;;
7561;SDS011;3822;48.784;9.174;2023-02-15T08:51:47;29.87;;;16.80;;
7561;SDS011;3822;48.784;9.174;2023-02-15T08:54:16;29.23;;;15.40;;
7561;SDS011;3822;48.784;9.174;2023-02-15T08:56:45;28.63;;;15.00;;
7561;SDS011;3822;48.784;9.174;2023-02-15T08:59:19;27.33;;;16.10;;
7561;SDS011;3822;48.784;9.174;2023-02-15T09:01:48;34.20;;;16.70;;
7561;SDS011;3822;48.784;9.174;2023-02-15T09:04:17;26.73;;;15.30;;
7561;SDS011;3822;48.784;9.174;2023-02-15T09:06:44;26.60;;;15.37;;
7561;SDS011;3822;48.784;9.174;2023-02-15T09:09:12;32.33;;;16.13;;
7561;SDS011;3822;48.784;9.174;2023-02-15T09:11:40;29.37;;;16.70;;
7561;SDS011;3822;48.784;9.174;2023-02-15T09:14:13;28.43;;;15.30;;
7561;SDS011;3822;48.784;9.174;2023-02-15T09:16:43;28.00;;;15.07;;
7561;SDS011;3822;48.784;9.174;2023-02-15T09:19:14;27.03;;;16.60;;
7561;SDS011;3822;48.784;9.174;2023-02-15T09:21:43;32.93;;;16.23;;
7561;SDS011;3822;48.784;9.174;2023-02-15T09:24:11;26.40;;;15.47;;
7561;SDS011;3822;48.784;9.174;2023-02-15T09:26:41;26.17;;;15.53;;
7561;SDS011;3822;48.784;9.174;2023-02-15T09:29:10;23.93;;;14.33;;
7561;SDS011;3822;48.784;9.174;2023-02-15T09:31:45;32.90;;;18.10;;
7561;SDS011;3822;48.784;9.174;2023-02-15T09:34:15;28.57;;;17.07;;
7561;SDS011;3822;48.784;9.174;2023-02-15T09:36:44;39.80;;;17.00;;
7561;SDS011;3822;48.784;9.174;2023-02-15T09:39:19;30.07;;;17.00;;
7561;SDS011;3822;48.784;9.174;2023-02-15T09:56:58;36.93;;;17.43;;
7561;SDS011;3822;48.784;9.174;2023-02-15T10:08:21;28.73;;;15.77;;
7561;SDS011;3822;48.784;9.174;2023-02-15T10:14:37;29.23;;;16.53;;
7561;SDS011;3822;48.784;9.174;2023-02-15T10:27:07;30.10;;;17.20;;
7561;SDS011;3822;48.784;9.174;2023-02-15T10:30:00;32.63;;;15.30;;
7561;SDS011;3822;48.784;9.174;2023-02-15T10:35:36;23.40;;;13.87;;
7561;SDS011;3822;48.784;9.174;2023-02-15T10:38:49;32.13;;;13.70;;
7561;SDS011;3822;48.784;9.174;2023-02-15T10:44:40;26.13;;;15.80;;
7561;SDS011;3822;48.784;9.174;2023-02-15T10:51:00;25.73;;;15.97;;
7561;SDS011;3822;48.784;9.174;2023-02-15T10:56:34;28.80;;;16.60;;
7561;SDS011;3822;48.784;9.174;2023-02-15T10:59:23;29.73;;;17.13;;
7561;SDS011;3822;48.784;9.174;2023-02-15T11:05:07;28.57;;;16.53;;
7561;SDS011;3822;48.784;9.174;2023-02-15T11:07:55;26.00;;;14.70;;
7561;SDS011;3822;48.784;9.174;2023-02-15T11:10:33;28.63;;;17.73;;
7561;SDS011;3822;48.784;9.174;2023-02-15T11:13:14;24.97;;;15.43;;
7561;SDS011;3822;48.784;9.174;2023-02-15T11:18:51;28.97;;;15.33;;
7561;SDS011;3822;48.784;9.174;2023-02-15T11:21:33;27.00;;;15.97;;
7561;SDS011;3822;48.784;9.174;2023-02-15T11:24:10;44.93;;;18.70;;
7561;SDS011;3822;48.784;9.174;2023-02-15T11:26:44;27.20;;;14.77;;
7561;SDS011;3822;48.784;9.174;2023-02-15T11:29:52;34.73;;;16.97;;
7561;SDS011;3822;48.784;9.174;2023-02-15T11:40:44;26.33;;;17.00;;
7561;SDS011;3822;48.784;9.174;2023-02-15T11:43:41;28.73;;;16.70;;
7561;SDS011;3822;48.784;9.174;2023-02-15T11:46:20;35.97;;;16.60;;
7561;SDS011;3822;48.784;9.174;2023-02-15T11:48:47;27.73;;;16.50;;
7561;SDS011;3822;48.784;9.174;2023-02-15T11:51:15;30.57;;;16.93;;
7561;SDS011;3822;48.784;9.174;2023-02-15T11:53:45;28.03;;;15.30;;
7561;SDS011;3822;48.784;9.174;2023-02-15T11:56:21;24.73;;;15.47;;
7561;SDS011;3822;48.784;9.174;2023-02-15T11:59:00;25.40;;;15.40;;
7561;SDS011;3822;48.784;9.174;2023-02-15T12:01:37;27.17;;;15.20;;
7561;SDS011;3822;48.784;9.174;2023-02-15T12:04:22;21.00;;;13.83;;
7561;SDS011;3822;48.784;9.174;2023-02-15T12:07:13;25.30;;;15.60;;
7561;SDS011;3822;48.784;9.174;2023-02-15T12:10:28;23.80;;;14.10;;
7561;SDS011;3822;48.784;9.174;2023-02-15T12:13:14;27.70;;;16.07;;
7561;SDS011;3822;48.784;9.174;2023-02-15T12:15:44;25.40;;;14.97;;
7561;SDS011;3822;48.784;9.174;2023-02-15T12:18:18;22.63;;;14.57;;
7561;SDS011;3822;48.784;9.174;2023-02-15T12:21:02;26.27;;;16.17;;
7561;SDS011;3822;48.784;9.174;2023-02-15T12:23:34;34.43;;;16.13;;
7561;SDS011;3822;48.784;9.174;2023-02-15T12:26:23;26.37;;;15.27;;
7561;SDS011;3822;48.784;9.174;2023-02-15T12:28:56;39.37;;;21.00;;
7561;SDS011;3822;48.784;9.174;2023-02-15T12:31:47;32.00;;;17.47;;
7561;SDS011;3822;48.784;9.174;2023-02-15T12:36:57;31.53;;;16.47;;
7561;SDS011;3822;48.784;9.174;2023-02-15T12:39:33;24.17;;;13.80;;
7561;SDS011;3822;48.784;9.174;2023-02-15T12:42:16;27.77;;;14.50;;
7561;SDS011;3822;48.784;9.174;2023-02-15T12:45:00;29.07;;;13.37;;
7561;SDS011;3822;48.784;9.174;2023-02-15T12:47:30;25.77;;;12.97;;
7561;SDS011;3822;48.784;9.174;2023-02-15T12:52:34;23.73;;;13.17;;
7561;SDS011;3822;48.784;9.174;2023-02-15T12:55:17;28.80;;;14.30;;
7561;SDS011;3822;48.784;9.174;2023-02-15T12:57:48;23.20;;;14.17;;
7561;SDS011;3822;48.784;9.174;2023-02-15T13:00:42;28.00;;;15.47;;
7561;SDS011;3822;48.784;9.174;2023-02-15T13:03:19;19.87;;;12.70;;
7561;SDS011;3822;48.784;9.174;2023-02-15T13:05:53;21.47;;;12.67;;
7561;SDS011;3822;48.784;9.174;2023-02-15T13:08:28;17.53;;;11.50;;
7561;SDS011;3822;48.784;9.174;2023-02-15T13:13:31;23.47;;;12.73;;
7561;SDS011;3822;48.784;9.174;2023-02-15T13:16:11;18.20;;;13.07;;
7561;SDS011;3822;48.784;9.174;2023-02-15T13:18:42;17.40;;;11.43;;
7561;SDS011;3822;48.784;9.174;2023-02-15T13:21:12;20.33;;;12.80;;
7561;SDS011;3822;48.784;9.174;2023-02-15T13:23:55;15.80;;;10.50;;
7561;SDS011;3822;48.784;9.174;2023-02-15T13:26:32;16.77;;;11.23;;
7561;SDS011;3822;48.784;9.174;2023-02-15T13:29:05;17.90;;;12.23;;
7561;SDS011;3822;48.784;9.174;2023-02-15T13:31:41;21.10;;;13.73;;
7561;SDS011;3822;48.784;9.174;2023-02-15T13:34:10;20.03;;;12.80;;
7561;SDS011;3822;48.784;9.174;2023-02-15T13:36:52;19.10;;;12.80;;
7561;SDS011;3822;48.784;9.174;2023-02-15T13:44:54;19.40;;;12.33;;
7561;SDS011;3822;48.784;9.174;2023-02-15T13:48:07;17.80;;;11.80;;
7561;SDS011;3822;48.784;9.174;2023-02-15T13:51:05;17.53;;;10.70;;
7561;SDS011;3822;48.784;9.174;2023-02-15T14:02:33;18.43;;;11.33;;
7561;SDS011;3822;48.784;9.174;2023-02-15T14:05:23;18.57;;;12.37;;
7561;SDS011;3822;48.784;9.174;2023-02-15T14:08:32;15.87;;;11.27;;
7561;SDS011;3822;48.784;9.174;2023-02-15T14:20:22;26.20;;;12.27;;
7561;SDS011;3822;48.784;9.174;2023-02-15T14:29:46;19.70;;;10.93;;
7561;SDS011;3822;48.784;9.174;2023-02-15T14:32:39;19.20;;;11.53;;
7561;SDS011;3822;48.784;9.174;2023-02-15T14:35:15;25.23;;;10.40;;
7561;SDS011;3822;48.784;9.174;2023-02-15T14:40:48;17.63;;;11.80;;
7561;SDS011;3822;48.784;9.174;2023-02-15T14:48:55;19.30;;;11.60;;
7561;SDS011;3822;48.784;9.174;2023-02-15T14:54:55;20.53;;;11.30;;
7561;SDS011;3822;48.784;9.174;2023-02-15T14:59:45;14.27;;;9.83;;
7561;SDS011;3822;48.784;9.174;2023-02-15T15:02:23;21.93;;;10.43;;
7561;SDS011;3822;48.784;9.174;2023-02-15T15:05:09;22.23;;;10.33;;
7561;SDS011;3822;48.784;9.174;2023-02-15T15:12:44;14.90;;;9.37;;
7561;SDS011;3822;48.784;9.174;2023-02-15T15:17:56;21.73;;;12.00;;
7561;SDS011;3822;48.784;9.174;2023-02-15T15:25:46;17.33;;;11.97;;
7561;SDS011;3822;48.784;9.174;2023-02-15T15:42:39;15.93;;;11.60;;
7561;SDS011;3822;48.784;9.174;2023-02-15T15:50:57;23.80;;;11.30;;
7561;SDS011;3822;48.784;9.174;2023-02-15T15:53:27;17.23;;;12.63;;
7561;SDS011;3822;48.784;9.174;2023-02-15T15:56:04;19.10;;;11.07;;
7561;SDS011;3822;48.784;9.174;2023-02-15T15:58:36;18.57;;;12.33;;
7561;SDS011;3822;48.784;9.174;2023-02-15T16:01:11;16.57;;;11.03;;
7561;SDS011;3822;48.784;9.174;2023-02-15T16:03:47;17.43;;;12.20;;
7561;SDS011;3822;48.784;9.174;2023-02-15T16:06:26;16.90;;;11.77;;
7561;SDS011;3822;48.784;9.174;2023-02-15T16:08:54;14.07;;;10.93;;
7561;SDS011;3822;48.784;9.174;2023-02-15T16:11:24;17.20;;;11.87;;
7561;SDS011;3822;48.784;9.174;2023-02-15T16:13:55;17.50;;;11.97;;
7561;SDS011;3822;48.784;9.174;2023-02-15T16:16:22;22.20;;;14.13;;
7561;SDS011;3822;48.784;9.174;2023-02-15T16:18:54;18.50;;;13.50;;
7561;SDS011;3822;48.784;9.174;2023-02-15T16:21:29;17.03;;;12.23;;
7561;SDS011;3822;48.784;9.174;2023-02-15T16:27:00;22.20;;;12.93;;
7561;SDS011;3822;48.784;9.174;2023-02-15T16:29:45;18.33;;;12.20;;
7561;SDS011;3822;48.784;9.174;2023-02-15T16:32:16;19.43;;;12.20;;
7561;SDS011;3822;48.784;9.174;2023-02-15T16:34:51;19.23;;;12.50;;
7561;SDS011;3822;48.784;9.174;2023-02-15T16:37:25;15.47;;;12.20;;
7561;SDS011;3822;48.784;9.174;2023-02-15T16:39:57;17.00;;;12.57;;
7561;SDS011;3822;48.784;9.174;2023-02-15T16:42:23;16.40;;;12.30;;
7561;SDS011;3822;48.784;9.174;2023-02-15T16:47:45;20.60;;;13.80;;
7561;SDS011;3822;48.784;9.174;2023-02-15T16:50:32;20.40;;;12.73;;
7561;SDS011;3822;48.784;9.174;2023-02-15T16:53:01;19.83;;;12.73;;
7561;SDS011;3822;48.784;9.174;2023-02-15T16:55:33;14.70;;;11.70;;
7561;SDS011;3822;48.784;9.174;2023-02-15T16:58:04;19.10;;;11.00;;
7561;SDS011;3822;48.784;9.174;2023-02-15T17:00:37;17.37;;;11.63;;
7561;SDS011;3822;48.784;9.174;2023-02-15T17:03:19;16.67;;;11.47;;
7561;SDS011;3822;48.784;9.174;2023-02-15T17:05:56;17.87;;;11.73;;
7561;SDS011;3822;48.784;9.174;2023-02-15T17:08:31;17.67;;;12.60;;
7561;SDS011;3822;48.784;9.174;2023-02-15T17:11:16;22.70;;;12.47;;
7561;SDS011;3822;48.784;9.174;2023-02-15T17:16:33;21.37;;;13.10;;
7561;SDS011;3822;48.784;9.174;2023-02-15T17:19:17;17.67;;;12.70;;
7561;SDS011;3822;48.784;9.174;2023-02-15T17:21:54;15.60;;;11.80;;
7561;SDS011;3822;48.784;9.174;2023-02-15T17:24:28;17.83;;;12.63;;
7561;SDS011;3822;48.784;9.174;2023-02-15T17:26:57;17.30;;;12.77;;
7561;SDS011;3822;48.784;9.174;2023-02-15T17:29:33;20.43;;;12.53;;
7561;SDS011;3822;48.784;9.174;2023-02-15T17:32:05;21.43;;;11.90;;
7561;SDS011;3822;48.784;9.174;2023-02-15T17:37:47;17.10;;;12.40;;
7561;SDS011;3822;48.784;9.174;2023-02-15T17:40:19;19.77;;;13.80;;
7561;SDS011;3822;48.784;9.174;2023-02-15T17:42:50;21.33;;;14.23;;
7561;SDS011;3822;48.784;9.174;2023-02-15T17:45:18;24.27;;;14.30;;
7561;SDS011;3822;48.784;9.174;2023-02-15T17:47:46;21.80;;;15.17;;
7561;SDS011;3822;48.784;9.174;2023-02-15T17:52:48;28.10;;;14.83;;
7561;SDS011;3822;48.784;9.174;2023-02-15T17:55:17;17.67;;;13.23;;
7561;SDS011;3822;48.784;9.174;2023-02-15T17:58:06;17.77;;;13.33;;
7561;SDS011;3822;48.784;9.174;2023-02-15T18:00:44;22.83;;;13.80;;
7561;SDS011;3822;48.784;9.174;2023-02-15T18:06:32;21.57;;;13.97;;
7561;SDS011;3822;48.784;9.174;2023-02-15T18:09:20;19.30;;;12.90;;
7561;SDS011;3822;48.784;9.174;2023-02-15T18:12:14;16.50;;;12.37;;
7561;SDS011;3822;48.784;9.174;2023-02-15T18:14:52;22.27;;;12.30;;
7561;SDS011;3822;48.784;9.174;2023-02-15T18:17:21;20.70;;;14.30;;
7561;SDS011;3822;48.784;9.174;2023-02-15T18:20:05;23.73;;;15.33;;
7561;SDS011;3822;48.784;9.174;2023-02-15T18:22:45;19.83;;;13.53;;
7561;SDS011;3822;48.784;9.174;2023-02-15T18:25:13;19.37;;;13.93;;
7561;SDS011;3822;48.784;9.174;2023-02-15T18:27:42;20.50;;;14.87;;
7561;SDS011;3822;48.784;9.174;2023-02-15T18:30:14;21.20;;;15.43;;
7561;SDS011;3822;48.784;9.174;2023-02-15T18:32:44;25.20;;;17.77;;
7561;SDS011;3822;48.784;9.174;2023-02-15T18:35:13;29.80;;;16.43;;
7561;SDS011;3822;48.784;9.174;2023-02-15T18:37:41;22.60;;;16.10;;
7561;SDS011;3822;48.784;9.174;2023-02-15T18:40:13;23.33;;;15.87;;
7561;SDS011;3822;48.784;9.174;2023-02-15T18:42:42;22.40;;;15.07;;